Hauptseite
METAR-TAF:

METAR-TAF

Flughäfen :

Ouargla, Algerien

Breite: 31-55N, Länge: 005-24E, Höhe: 141 m

Beobachtung

Neuester Wetterbericht von vor 17 Minuten, um 09:00 UTC
Windstille
Temperatur 11°C
Luftfeuchtigkeit 50%
Luftdruck 1024 hPa
Sichtweite 10 km oder mehr
keine Wolken unter 1500 m und keine Kumulonimbus oder Gewitterwolken

METAR: DAUU 240900Z 00000KT CAVOK 11/01 Q1024

Zeit: 10:17 (09:17 UTC)

Prognose

Neuester Wetterbericht von vor 1 Stunde und 17 Minuten, um 08:00 UTC
Gültige Prognose vom 24 um 09 UTC bis 24 um 18 UTC
Wind 8 kt aus Nordost
Sichtweite 10 km oder mehr
keine Wolken unter 1500 m und keine Kumulonimbus oder Gewitterwolken

TAF: DAUU 240800Z 2409/2418 04008KT CAVOK

Wetterbeobachtungen und Prognosen von mehr als 4000 Flughäfen (METAR und TAF Bericht).

Die verfügbaren Stationen werden durch gelbe und rote Markierungen auf der Karte dargestellt.

Führen Sie die Maus auf sie, um den Namen der Station zu sehen.

Darauf klicken, um die Beobachtung von Wetterbeobachtungen und Prognosen zu sehen.

Um die Karte zu ändern : klicken Sie auf den grünen Tasten mit einem schwarzen Kreuz Zum Vergrößern, auf den grünen Button mit einem Gedankenstrich zu verkleinern, oder auf die grünen Pfeile für benachbarte Karten.


METAR-TAF: